Time;durP1;ratioP1;P1;durP2;ratioP2;P2;SDS_P1;SDS_P2;PMS_P1;PMS_P2;Temp;Humidity;BMP_temperature;BMP_pressure;BME280_temperature;BME280_humidity;BME280_pressure;Samples;Min_cycle;Max_cycle;Signal;HPM_P1;HPM_P2
2020/12/14 05:08:55;;;;;;;16.10;2.65;;;23.10;99.90;;;;;;5194263;27;20385;-60
2020/12/14 05:11:43;;;;;;;14.30;2.75;;;23.00;99.90;;;;;;5155128;27;20029;-59
2020/12/14 05:14:19;;;;;;;15.15;2.72;;;23.00;99.90;;;;;;5091868;28;20023;-59
2020/12/14 05:16:49;;;;;;;16.30;2.40;;;23.10;99.90;;;;;;5109083;28;20407;-59
2020/12/14 05:19:23;;;;;;;15.00;2.45;;;23.10;99.90;;;;;;5092185;28;20085;-59
2020/12/14 05:21:59;;;;;;;13.70;3.10;;;23.20;99.90;;;;;;5075158;28;20124;-59
2020/12/14 05:24:33;;;;;;;20.88;2.78;;;23.20;99.90;;;;;;5108941;28;20130;-59
2020/12/14 05:27:02;;;;;;;14.05;2.55;;;23.20;99.90;;;;;;5108694;28;20056;-59
2020/12/14 05:29:31;;;;;;;14.93;3.17;;;23.20;99.90;;;;;;5091782;28;20035;-59
2020/12/14 05:32:07;;;;;;;15.68;2.25;;;23.20;99.90;;;;;;5108588;28;20101;-59
2020/12/14 05:34:41;;;;;;;20.20;3.08;;;23.40;99.90;;;;;;5108618;28;20103;-59
2020/12/14 05:37:11;;;;;;;17.55;3.20;;;23.60;99.90;;;;;;5092018;28;20028;-60
2020/12/14 05:39:41;;;;;;;12.55;2.30;;;23.70;99.90;;;;;;5108593;28;20032;-59
2020/12/14 05:42:14;;;;;;;10.10;2.10;;;24.00;99.90;;;;;;5108433;28;20110;-60
2020/12/14 05:44:45;;;;;;;11.70;2.03;;;24.20;99.90;;;;;;5112050;27;20030;-60
2020/12/14 05:47:32;;;;;;;14.93;2.38;;;24.40;99.90;;;;;;5172749;27;20022;-59
2020/12/14 05:50:01;;;;;;;14.25;2.90;;;24.80;99.90;;;;;;5108142;28;20510;-60
2020/12/14 05:52:32;;;;;;;15.13;2.30;;;25.20;99.90;;;;;;5107990;28;20036;-60
2020/12/14 05:55:01;;;;;;;12.82;2.97;;;25.60;99.90;;;;;;5107970;28;20039;-60
2020/12/14 05:57:35;;;;;;;12.50;2.33;;;25.90;99.90;;;;;;5108070;28;20440;-59
2020/12/14 06:00:13;;;;;;;13.85;2.83;;;26.20;99.90;;;;;;5107975;28;20032;-59
2020/12/14 06:02:41;;;;;;;13.05;2.50;;;26.10;99.90;;;;;;5106511;28;20024;-59
2020/12/14 06:05:10;;;;;;;15.30;2.70;;;26.10;99.90;;;;;;5087770;28;20029;-59
2020/12/14 06:07:39;;;;;;;16.20;2.67;;;26.30;99.90;;;;;;5087147;28;20043;-60
2020/12/14 06:10:09;;;;;;;12.35;2.40;;;26.40;99.90;;;;;;5087483;28;20075;-60
2020/12/14 06:12:42;;;;;;;11.88;2.13;;;26.20;99.90;;;;;;5087422;28;20075;-59
2020/12/14 06:15:15;;;;;;;11.20;2.00;;;26.00;99.90;;;;;;5087317;28;20551;-58
2020/12/14 06:17:47;;;;;;;11.55;2.20;;;26.00;99.90;;;;;;5086254;28;20020;-59
2020/12/14 06:20:23;;;;;;;9.90;2.13;;;26.10;99.90;;;;;;5087228;27;20042;-59
2020/12/14 06:23:07;;;;;;;9.43;1.95;;;26.10;99.90;;;;;;5137200;27;20019;-60
2020/12/14 06:25:35;;;;;;;12.07;2.38;;;25.90;99.90;;;;;;5137077;27;20019;-60
2020/12/14 06:28:29;;;;;;;12.30;2.28;;;25.70;99.90;;;;;;5137237;27;20538;-60
2020/12/14 06:30:57;;;;;;;10.82;2.08;;;25.40;99.90;;;;;;5137213;27;20490;-60
2020/12/14 06:33:38;;;;;;;12.07;1.92;;;25.00;99.90;;;;;;5136827;27;20022;-60
2020/12/14 06:36:25;;;;;;;15.07;2.80;;;24.80;99.90;;;;;;5137093;27;20031;-60
2020/12/14 06:38:53;;;;;;;13.05;2.47;;;24.60;99.90;;;;;;5073543;28;20024;-61
2020/12/14 06:41:24;;;;;;;12.32;2.22;;;24.50;99.90;;;;;;5073456;28;20037;-62
2020/12/14 06:44:12;;;;;;;11.05;2.35;;;24.20;99.90;;;;;;5073539;28;20158;-60
2020/12/14 06:46:41;;;;;;;12.30;2.63;;;23.50;99.90;;;;;;5073239;28;20032;-59
2020/12/14 06:49:09;;;;;;;16.08;2.42;;;23.00;99.90;;;;;;5073181;28;20033;-60
2020/12/14 06:51:56;;;;;;;12.20;2.90;;;22.60;99.90;;;;;;5072942;28;20089;-61
2020/12/14 06:54:47;;;;;;;12.68;2.40;;;22.40;99.90;;;;;;5032953;28;20073;-60
2020/12/14 06:57:17;;;;;;;14.63;2.63;;;22.40;99.90;;;;;;5013413;28;20091;-60
2020/12/14 06:59:57;;;;;;;13.30;2.67;;;22.30;99.90;;;;;;5013342;28;20038;-60
2020/12/14 07:02:44;;;;;;;18.30;2.65;;;22.30;99.90;;;;;;5013380;28;20029;-60
2020/12/14 07:05:33;;;;;;;15.63;3.30;;;22.20;99.90;;;;;;5013273;28;20096;-60
2020/12/14 07:08:03;;;;;;;16.08;3.10;;;22.10;99.90;;;;;;5012969;28;20487;-60
2020/12/14 07:10:32;;;;;;;18.83;2.67;;;22.10;99.90;;;;;;5059439;28;20075;-60
2020/12/14 07:13:00;;;;;;;17.63;3.17;;;22.20;99.90;;;;;;5072871;28;20076;-61
2020/12/14 07:15:30;;;;;;;19.08;2.70;;;22.20;99.90;;;;;;5072884;28;20455;-60
2020/12/14 07:18:05;;;;;;;20.02;3.40;;;22.20;99.90;;;;;;5072797;28;20440;-60
2020/12/14 07:20:34;;;;;;;14.57;2.60;;;22.20;99.90;;;;;;5072667;28;20025;-61
2020/12/14 07:23:07;;;;;;;18.15;3.13;;;22.30;99.90;;;;;;5055642;28;20184;-60
2020/12/14 07:25:36;;;;;;;17.02;2.60;;;22.30;99.90;;;;;;5084568;28;20040;-60
2020/12/14 07:28:04;;;;;;;15.50;2.80;;;22.30;99.90;;;;;;5092503;28;20036;-59
2020/12/14 07:30:32;;;;;;;17.05;3.03;;;22.20;99.90;;;;;;5091726;28;20081;-59
2020/12/14 07:33:01;;;;;;;13.18;2.72;;;22.30;99.90;;;;;;5092727;28;20443;-59
2020/12/14 07:35:29;;;;;;;15.15;3.55;;;22.30;99.90;;;;;;5115426;27;20031;-59
2020/12/14 07:37:57;;;;;;;19.98;3.03;;;22.20;99.90;;;;;;5136073;27;20026;-59
2020/12/14 07:40:25;;;;;;;23.42;3.10;;;22.20;99.90;;;;;;5135944;27;20112;-59
2020/12/14 07:42:52;;;;;;;20.65;3.70;;;22.20;99.90;;;;;;5135864;27;20033;-59
2020/12/14 07:45:23;;;;;;;16.40;2.88;;;22.20;99.90;;;;;;5135848;27;20110;-60
2020/12/14 07:47:54;;;;;;;13.05;2.65;;;22.20;99.90;;;;;;5117048;27;20459;-61
2020/12/14 07:50:25;;;;;;;18.75;3.38;;;22.20;99.90;;;;;;5135830;27;20027;-59
2020/12/14 07:52:54;;;;;;;17.52;2.50;;;22.20;99.90;;;;;;5135411;27;20027;-54
2020/12/14 07:55:28;;;;;;;15.10;2.88;;;22.20;99.90;;;;;;5135709;27;20019;-58
2020/12/14 07:57:56;;;;;;;17.10;2.95;;;22.30;99.90;;;;;;5135588;27;20494;-59
2020/12/14 08:00:26;;;;;;;14.80;2.72;;;22.40;99.90;;;;;;5135278;27;20103;-60
2020/12/14 08:03:01;;;;;;;16.77;3.08;;;22.30;99.90;;;;;;5135483;27;20034;-58
2020/12/14 08:05:29;;;;;;;14.27;2.42;;;22.40;99.90;;;;;;5135215;27;20023;-61
2020/12/14 08:08:03;;;;;;;18.88;2.72;;;22.20;99.90;;;;;;5134957;27;20043;-59
2020/12/14 08:10:33;;;;;;;11.55;2.67;;;22.20;99.90;;;;;;5116702;27;20026;-61
2020/12/14 08:13:10;;;;;;;15.85;3.17;;;22.20;99.90;;;;;;5135073;27;20525;-60
2020/12/14 08:15:43;;;;;;;15.77;2.85;;;22.10;99.90;;;;;;5135072;27;20023;-60
2020/12/14 08:18:11;;;;;;;11.90;2.40;;;22.00;99.90;;;;;;5135264;27;20114;-60
2020/12/14 08:20:41;;;;;;;16.23;3.65;;;21.90;99.90;;;;;;5135033;27;20023;-59
2020/12/14 08:23:21;;;;;;;15.10;2.60;;;21.80;99.90;;;;;;5135098;27;20382;-59
2020/12/14 08:25:50;;;;;;;11.82;2.15;;;21.80;99.90;;;;;;5135129;27;20030;-59
2020/12/14 08:28:29;;;;;;;15.40;2.67;;;21.70;99.90;;;;;;5135003;27;20027;-59
2020/12/14 08:30:57;;;;;;;16.80;3.53;;;21.60;99.90;;;;;;5134958;27;20066;-60
2020/12/14 08:33:25;;;;;;;15.88;2.92;;;21.60;99.90;;;;;;5134619;27;20069;-60
2020/12/14 08:35:54;;;;;;;16.65;3.17;;;21.60;99.90;;;;;;5134592;27;20038;-60
2020/12/14 08:38:28;;;;;;;17.63;3.67;;;21.50;99.90;;;;;;5134846;27;20495;-60
2020/12/14 08:41:03;;;;;;;14.90;3.00;;;21.50;99.90;;;;;;5134588;27;20473;-60
2020/12/14 08:43:34;;;;;;;18.17;3.28;;;21.50;99.90;;;;;;5134527;27;20031;-59
2020/12/14 08:46:11;;;;;;;21.23;3.00;;;21.50;99.90;;;;;;5134557;27;20051;-60
2020/12/14 08:48:59;;;;;;;15.05;3.00;;;21.40;99.90;;;;;;5134422;27;20102;-60
2020/12/14 08:51:35;;;;;;;17.92;3.30;;;21.40;99.90;;;;;;5071195;28;20028;-59
2020/12/14 08:54:15;;;;;;;20.10;3.22;;;21.40;99.90;;;;;;5071232;28;20029;-59
2020/12/14 08:56:43;;;;;;;18.92;3.40;;;21.40;99.90;;;;;;5071320;28;20523;-60
2020/12/14 08:59:17;;;;;;;19.17;4.20;;;21.40;99.90;;;;;;5071106;28;20103;-60
2020/12/14 09:02:06;;;;;;;18.65;3.40;;;21.40;99.90;;;;;;5071110;28;20111;-59
2020/12/14 09:04:36;;;;;;;13.23;2.55;;;21.40;99.90;;;;;;5031043;28;20037;-57
2020/12/14 09:07:05;;;;;;;11.90;2.25;;;21.40;99.90;;;;;;5030962;28;20076;-58
2020/12/14 09:09:38;;;;;;;10.95;2.40;;;21.10;99.90;;;;;;5031042;28;20037;-58
2020/12/14 09:12:13;;;;;;;14.23;2.85;;;21.00;99.90;;;;;;5031041;28;20491;-58
2020/12/14 09:14:41;;;;;;;13.35;2.78;;;20.80;99.90;;;;;;5031131;28;20026;-59
2020/12/14 09:17:29;;;;;;;11.77;2.40;;;20.70;99.90;;;;;;5030974;28;20144;-58
2020/12/14 09:19:57;;;;;;;9.98;2.20;;;20.70;99.90;;;;;;5011164;28;20030;-59
2020/12/14 09:22:26;;;;;;;16.85;3.53;;;20.70;99.90;;;;;;5041962;28;20033;-58
2020/12/14 09:24:54;;;;;;;14.10;2.65;;;20.60;99.90;;;;;;5070923;28;20041;-58
2020/12/14 09:27:22;;;;;;;14.30;3.03;;;20.60;99.90;;;;;;5070693;28;20032;-59
2020/12/14 09:29:50;;;;;;;16.08;2.60;;;20.60;99.90;;;;;;5070909;28;20112;-58
2020/12/14 09:32:18;;;;;;;12.20;2.78;;;20.50;99.90;;;;;;5070924;28;20147;-59
2020/12/14 09:34:46;;;;;;;14.80;3.28;;;20.50;99.90;;;;;;5070925;28;20115;-59
2020/12/14 09:37:14;;;;;;;18.02;3.58;;;20.40;99.90;;;;;;5070793;28;20025;-59
2020/12/14 09:39:43;;;;;;;19.15;3.42;;;20.40;99.90;;;;;;5070855;28;20043;-59
2020/12/14 09:42:11;;;;;;;16.13;2.83;;;20.40;99.90;;;;;;5083066;28;20137;-59
2020/12/14 09:44:39;;;;;;;18.10;2.80;;;20.40;99.90;;;;;;5091004;28;20032;-60
2020/12/14 09:47:09;;;;;;;17.27;3.33;;;20.30;99.90;;;;;;5090736;28;20031;-60
2020/12/14 09:49:38;;;;;;;15.93;3.50;;;20.30;99.90;;;;;;5091027;28;20119;-59
2020/12/14 09:52:09;;;;;;;16.42;3.15;;;20.30;99.90;;;;;;5134176;28;20022;-60
2020/12/14 09:54:36;;;;;;;14.48;3.45;;;20.30;99.90;;;;;;5136786;27;20046;-60
2020/12/14 09:57:04;;;;;;;19.38;3.85;;;20.30;99.90;;;;;;5137672;27;20563;-61
2020/12/14 09:59:32;;;;;;;16.25;3.45;;;20.30;99.90;;;;;;5137089;27;20035;-59
2020/12/14 10:02:00;;;;;;;16.98;3.35;;;20.30;99.90;;;;;;5137588;27;20027;-60
2020/12/14 10:04:30;;;;;;;14.50;3.03;;;20.30;99.90;;;;;;5137657;27;20029;-60
2020/12/14 10:06:57;;;;;;;12.57;3.00;;;20.30;99.90;;;;;;5137252;27;20113;-60
2020/12/14 10:09:28;;;;;;;17.48;3.53;;;20.30;99.90;;;;;;5137367;27;20049;-60
2020/12/14 10:11:57;;;;;;;18.67;3.50;;;20.30;99.90;;;;;;5137396;27;20034;-59
2020/12/14 10:14:24;;;;;;;13.52;3.10;;;20.30;99.90;;;;;;5137220;27;20023;-60
2020/12/14 10:16:54;;;;;;;14.68;3.10;;;20.30;99.90;;;;;;5137268;27;20073;-59
2020/12/14 10:19:21;;;;;;;15.73;2.88;;;20.30;99.90;;;;;;5137270;27;20406;-60
2020/12/14 10:21:49;;;;;;;16.15;3.03;;;20.30;99.90;;;;;;5137171;27;20106;-59
2020/12/14 10:24:17;;;;;;;14.07;3.00;;;20.30;99.90;;;;;;5137136;27;20020;-59
2020/12/14 10:26:48;;;;;;;18.58;3.35;;;20.30;99.90;;;;;;5137173;27;20038;-60
2020/12/14 10:29:17;;;;;;;;;;;20.30;99.90;;;;;;5137489;27;20375;-59
2020/12/14 10:31:48;;;;;;;15.18;2.92;;;20.30;99.90;;;;;;5137045;27;19903;-60
2020/12/14 10:34:16;;;;;;;15.88;3.00;;;20.30;99.90;;;;;;5085622;27;20034;-59
2020/12/14 10:36:48;;;;;;;17.17;3.25;;;20.20;99.90;;;;;;5137082;27;20035;-60
2020/12/14 10:39:17;;;;;;;15.57;3.53;;;20.30;99.90;;;;;;5084618;27;20111;-60
2020/12/14 10:41:45;;;;;;;16.35;2.97;;;20.20;99.90;;;;;;5136959;27;20474;-61
2020/12/14 10:44:13;;;;;;;16.48;3.13;;;20.20;99.90;;;;;;5136633;27;20050;-61
2020/12/14 10:46:42;;;;;;;17.77;3.40;;;20.30;99.90;;;;;;5136575;27;20027;-60
2020/12/14 10:49:11;;;;;;;18.83;2.80;;;20.30;99.90;;;;;;5100560;27;20479;-60
2020/12/14 10:51:40;;;;;;;16.15;3.70;;;20.30;99.90;;;;;;5136873;27;20098;-61
2020/12/14 10:54:08;;;;;;;17.05;4.47;;;20.30;99.90;;;;;;5136751;27;20019;-61
2020/12/14 10:56:36;;;;;;;21.35;3.47;;;20.30;99.90;;;;;;5136760;27;20328;-60
2020/12/14 10:59:04;;;;;;;20.80;4.15;;;20.30;99.90;;;;;;5136700;27;20023;-60
2020/12/14 11:01:32;;;;;;;16.17;3.90;;;20.30;99.90;;;;;;5136350;27;20067;-60
2020/12/14 11:04:00;;;;;;;15.43;3.58;;;20.30;99.90;;;;;;5136163;27;20023;-60
2020/12/14 11:06:34;;;;;;;17.23;3.00;;;20.30;99.90;;;;;;5135979;27;20039;-60
2020/12/14 11:09:03;;;;;;;16.35;3.08;;;20.40;99.90;;;;;;5136238;27;20046;-60
2020/12/14 11:11:35;;;;;;;22.08;4.43;;;20.30;99.90;;;;;;5083613;27;20035;-59
2020/12/14 11:14:05;;;;;;;17.83;3.58;;;20.30;99.90;;;;;;5136348;27;20038;-60
2020/12/14 11:16:37;;;;;;;17.35;3.70;;;20.40;99.90;;;;;;5136147;27;20033;-62
2020/12/14 11:19:06;;;;;;;19.83;3.70;;;20.30;99.90;;;;;;5117566;27;20027;-59
2020/12/14 11:21:34;;;;;;;22.92;4.82;;;20.30;99.90;;;;;;5135870;27;20019;-59
2020/12/14 11:24:01;;;;;;;16.55;3.58;;;20.30;99.90;;;;;;5136126;27;20520;-60
2020/12/14 11:26:30;;;;;;;18.33;3.92;;;20.30;99.90;;;;;;5135718;27;20019;-60
2020/12/14 11:28:58;;;;;;;17.60;3.70;;;20.40;99.90;;;;;;5136131;27;20019;-59
2020/12/14 11:31:26;;;;;;;17.60;3.30;;;20.40;99.90;;;;;;5135741;27;20102;-59
2020/12/14 11:33:54;;;;;;;19.67;3.50;;;20.40;99.90;;;;;;5136067;27;20023;-60
2020/12/14 11:36:28;;;;;;;19.25;3.60;;;20.40;99.90;;;;;;5135718;27;20019;-60
2020/12/14 11:38:58;;;;;;;22.25;4.25;;;20.40;99.90;;;;;;5135998;27;20019;-60
2020/12/14 11:41:27;;;;;;;22.90;4.18;;;20.50;99.90;;;;;;5072349;28;20082;-61
2020/12/14 11:43:56;;;;;;;21.42;3.60;;;20.50;99.90;;;;;;5072355;28;20093;-61
2020/12/14 11:46:24;;;;;;;18.50;3.83;;;20.50;99.90;;;;;;5072230;28;20400;-60
2020/12/14 11:48:53;;;;;;;24.25;4.30;;;20.50;99.90;;;;;;5072211;28;20484;-60
2020/12/14 11:51:21;;;;;;;23.25;4.10;;;20.50;99.90;;;;;;5072029;28;20032;-61
2020/12/14 11:53:50;;;;;;;20.38;4.32;;;20.50;99.90;;;;;;5072145;28;20107;-61
2020/12/14 11:56:18;;;;;;;18.20;3.47;;;20.50;99.90;;;;;;5072029;28;20036;-61
2020/12/14 11:58:46;;;;;;;24.08;4.18;;;20.50;99.90;;;;;;5072006;28;20027;-60
2020/12/14 12:01:14;;;;;;;19.13;3.88;;;20.50;99.90;;;;;;5072233;28;20112;-60
2020/12/14 12:03:43;;;;;;;22.15;4.60;;;20.50;99.90;;;;;;5071961;28;20032;-59
2020/12/14 12:06:11;;;;;;;25.20;4.38;;;20.50;99.90;;;;;;5071705;28;20143;-60
2020/12/14 12:08:39;;;;;;;22.17;3.83;;;20.50;99.90;;;;;;5071882;28;20056;-60
2020/12/14 12:11:10;;;;;;;20.95;4.40;;;20.50;99.90;;;;;;5071895;28;20024;-60
2020/12/14 12:13:38;;;;;;;20.00;4.35;;;20.50;99.90;;;;;;5115196;28;20030;-59
2020/12/14 12:16:07;;;;;;;19.73;4.18;;;20.50;99.90;;;;;;5112715;28;20381;-59
2020/12/14 12:18:37;;;;;;;23.08;4.57;;;20.40;99.90;;;;;;5114728;28;20486;-59
2020/12/14 12:21:06;;;;;;;25.70;4.82;;;20.40;99.90;;;;;;5114716;28;20467;-60
2020/12/14 12:23:34;;;;;;;19.88;3.95;;;20.30;99.90;;;;;;5114195;28;20027;-59
2020/12/14 12:26:03;;;;;;;18.75;3.83;;;20.30;99.90;;;;;;5112981;28;20031;-60
2020/12/14 12:28:31;;;;;;;16.98;3.30;;;20.20;99.90;;;;;;5114382;28;20019;-60
2020/12/14 12:30:59;;;;;;;15.05;2.55;;;20.00;99.90;;;;;;5113291;28;20107;-60
2020/12/14 12:33:27;;;;;;;13.75;2.33;;;19.90;99.90;;;;;;5114451;28;20463;-60
2020/12/14 12:35:56;;;;;;;12.98;2.85;;;19.80;99.90;;;;;;5112973;28;20095;-60
2020/12/14 12:38:25;;;;;;;18.08;3.85;;;19.70;99.90;;;;;;5114350;28;20023;-61
2020/12/14 12:40:53;;;;;;;18.52;3.17;;;19.60;99.90;;;;;;5114051;28;20066;-62
2020/12/14 12:43:21;;;;;;;16.73;3.38;;;19.60;99.90;;;;;;5114061;28;20023;-59
2020/12/14 12:45:50;;;;;;;15.07;3.28;;;19.60;99.90;;;;;;5113988;28;20027;-59
2020/12/14 12:48:18;;;;;;;19.02;2.90;;;19.50;99.90;;;;;;5114068;28;20031;-60
2020/12/14 12:50:53;;;;;;;15.45;3.20;;;19.60;99.90;;;;;;5113824;28;20031;-60
2020/12/14 12:53:23;;;;;;;16.63;3.05;;;19.50;99.90;;;;;;5114032;28;20098;-61
2020/12/14 12:55:53;;;;;;;17.58;2.78;;;19.50;99.90;;;;;;5113049;28;20379;-60
2020/12/14 12:58:21;;;;;;;15.47;2.63;;;19.50;99.90;;;;;;5114054;28;20023;-60
2020/12/14 13:00:50;;;;;;;18.23;3.15;;;19.50;99.90;;;;;;5114091;28;20440;-60
2020/12/14 13:03:18;;;;;;;13.75;2.72;;;19.50;99.90;;;;;;5095422;28;20036;-60
2020/12/14 13:05:47;;;;;;;12.38;2.67;;;19.50;99.90;;;;;;5112480;28;20024;-60
2020/12/14 13:08:15;;;;;;;16.35;3.55;;;19.50;99.90;;;;;;5112227;28;20048;-61
2020/12/14 13:10:48;;;;;;;15.60;3.25;;;19.50;99.90;;;;;;5114004;28;20119;-61
2020/12/14 13:13:17;;;;;;;15.13;2.65;;;19.50;99.90;;;;;;5113661;28;20015;-61
2020/12/14 13:15:48;;;;;;;18.00;2.88;;;19.30;99.90;;;;;;5113933;28;20084;-61
2020/12/14 13:18:16;;;;;;;14.48;2.45;;;19.20;99.90;;;;;;5113567;28;20027;-61
2020/12/14 13:20:48;;;;;;;17.35;3.33;;;19.00;99.90;;;;;;5113997;28;20032;-61
2020/12/14 13:23:17;;;;;;;13.25;2.33;;;18.90;99.90;;;;;;5095430;28;20023;-61
2020/12/14 13:25:45;;;;;;;15.82;2.83;;;18.90;99.90;;;;;;5113540;28;20030;-61
2020/12/14 13:28:13;;;;;;;16.58;2.85;;;18.80;99.90;;;;;;5112754;28;20080;-61
2020/12/14 13:30:41;;;;;;;16.77;2.88;;;18.80;99.90;;;;;;5117676;28;20083;-60
2020/12/14 13:33:09;;;;;;;15.13;2.85;;;18.80;99.90;;;;;;5117989;28;20051;-60
2020/12/14 13:35:38;;;;;;;12.25;2.63;;;18.90;99.90;;;;;;5117572;28;20024;-60
2020/12/14 13:38:06;;;;;;;17.77;3.03;;;18.90;99.90;;;;;;5117819;28;20030;-61
2020/12/14 13:40:35;;;;;;;18.98;3.55;;;18.90;99.90;;;;;;5117590;28;20042;-61
2020/12/14 13:43:03;;;;;;;14.82;3.58;;;18.80;99.90;;;;;;5116100;28;20023;-61
2020/12/14 13:45:31;;;;;;;13.25;3.00;;;18.90;99.90;;;;;;5117411;28;20030;-62
2020/12/14 13:48:00;;;;;;;18.45;3.40;;;18.90;99.90;;;;;;5117146;28;20027;-61
2020/12/14 13:50:28;;;;;;;15.35;3.00;;;19.00;99.90;;;;;;5117478;28;20015;-61
2020/12/14 13:52:56;;;;;;;15.38;2.33;;;19.00;99.90;;;;;;5098419;28;20115;-60
2020/12/14 13:55:27;;;;;;;15.80;3.05;;;19.00;99.90;;;;;;5117379;28;20019;-61
2020/12/14 13:57:56;;;;;;;17.02;2.55;;;18.90;99.90;;;;;;5117461;28;20030;-60
2020/12/14 14:00:24;;;;;;;19.45;3.00;;;18.90;99.90;;;;;;5117444;28;20056;-61
2020/12/14 14:02:53;;;;;;;18.38;2.47;;;19.00;99.90;;;;;;5115248;28;20039;-60
2020/12/14 14:05:21;;;;;;;19.10;2.90;;;19.00;99.90;;;;;;5116945;28;20060;-61
2020/12/14 14:07:49;;;;;;;17.80;2.72;;;19.10;99.90;;;;;;5131964;27;20491;-60
2020/12/14 14:10:17;;;;;;;14.65;2.55;;;19.10;99.90;;;;;;5084649;27;20038;-61
2020/12/14 14:12:45;;;;;;;18.52;3.22;;;19.00;99.90;;;;;;5137342;27;20034;-61
2020/12/14 14:15:13;;;;;;;16.00;3.05;;;18.90;99.90;;;;;;5137645;27;20023;-61
2020/12/14 14:17:41;;;;;;;21.77;3.33;;;19.00;99.90;;;;;;5119607;27;20462;-60
2020/12/14 14:20:10;;;;;;;16.52;3.55;;;18.90;99.90;;;;;;5137196;27;20023;-61
2020/12/14 14:22:38;;;;;;;15.52;2.70;;;19.00;99.90;;;;;;5137483;27;20161;-61
2020/12/14 14:25:06;;;;;;;14.57;3.92;;;19.00;99.90;;;;;;5137302;27;20026;-62
2020/12/14 14:27:34;;;;;;;17.08;3.22;;;19.00;99.90;;;;;;5137147;27;20491;-61
2020/12/14 14:30:02;;;;;;;14.50;3.30;;;19.00;99.90;;;;;;5118708;27;20026;-61
2020/12/14 14:32:31;;;;;;;18.00;3.65;;;19.00;99.90;;;;;;5137282;27;20042;-61
2020/12/14 14:35:00;;;;;;;17.42;3.00;;;19.00;99.90;;;;;;5137023;27;20030;-61
2020/12/14 14:37:34;;;;;;;19.13;3.00;;;19.10;99.90;;;;;;5137197;27;20034;-60
2020/12/14 14:40:03;;;;;;;16.02;2.72;;;19.10;99.90;;;;;;5136482;27;20540;-61
2020/12/14 14:42:31;;;;;;;17.73;2.80;;;19.00;99.90;;;;;;5118470;27;20047;-61
2020/12/14 14:44:59;;;;;;;18.33;3.13;;;19.00;99.90;;;;;;5136811;27;20498;-61
2020/12/14 14:47:27;;;;;;;17.35;3.05;;;19.00;99.90;;;;;;5084766;27;20039;-61
2020/12/14 14:49:55;;;;;;;17.30;2.88;;;19.00;99.90;;;;;;5100764;27;20023;-61
2020/12/14 14:52:24;;;;;;;14.05;3.15;;;18.90;99.90;;;;;;5136626;27;20068;-62
2020/12/14 14:54:52;;;;;;;12.20;2.92;;;18.90;99.90;;;;;;5136657;27;20034;-61
2020/12/14 14:57:20;;;;;;;15.07;2.70;;;19.00;99.90;;;;;;5084287;27;20035;-61
2020/12/14 14:59:48;;;;;;;14.85;2.83;;;19.00;99.90;;;;;;5136598;27;20115;-61
2020/12/14 15:02:16;;;;;;;15.57;3.10;;;19.00;99.90;;;;;;5136830;27;20023;-61
2020/12/14 15:04:44;;;;;;;14.15;3.70;;;19.00;99.90;;;;;;5136361;27;20099;-61
2020/12/14 15:07:12;;;;;;;13.70;2.88;;;19.00;99.90;;;;;;5136074;27;20055;-61
2020/12/14 15:09:40;;;;;;;15.30;3.08;;;18.90;99.90;;;;;;5084489;27;20031;-61
2020/12/14 15:12:09;;;;;;;18.58;3.20;;;19.00;99.90;;;;;;5136546;27;20174;-61
2020/12/14 15:14:39;;;;;;;11.63;2.45;;;19.00;99.90;;;;;;5136262;27;20030;-60
2020/12/14 15:17:07;;;;;;;13.00;2.70;;;19.00;99.90;;;;;;5136237;27;20398;-61
2020/12/14 15:19:35;;;;;;;18.98;3.60;;;19.00;99.90;;;;;;5136066;27;20028;-61
2020/12/14 15:22:03;;;;;;;16.42;3.28;;;19.00;99.90;;;;;;5136233;27;20390;-61
2020/12/14 15:24:32;;;;;;;18.92;3.10;;;19.00;99.90;;;;;;5100090;27;20039;-61
2020/12/14 15:27:00;;;;;;;13.38;2.90;;;19.00;99.90;;;;;;5136188;27;20030;-62
2020/12/14 15:29:28;;;;;;;13.73;3.00;;;19.10;99.90;;;;;;5136193;27;20070;-62
2020/12/14 15:31:56;;;;;;;13.63;2.40;;;19.10;99.90;;;;;;5117496;27;20482;-62
2020/12/14 15:34:24;;;;;;;17.10;3.20;;;19.10;99.90;;;;;;5117748;27;20030;-61
2020/12/14 15:36:54;;;;;;;11.35;3.35;;;19.10;99.90;;;;;;5136031;27;20023;-61
2020/12/14 15:39:23;;;;;;;10.68;2.75;;;19.10;99.90;;;;;;5050087;27;20031;-61
2020/12/14 15:41:51;;;;;;;16.70;3.80;;;19.20;99.90;;;;;;5135737;27;20061;-61
2020/12/14 15:44:19;;;;;;;20.02;3.75;;;19.10;99.90;;;;;;5135609;27;20550;-62
2020/12/14 15:46:47;;;;;;;16.02;3.55;;;19.10;99.90;;;;;;5135743;27;20179;-60
2020/12/14 15:49:22;;;;;;;12.10;2.75;;;19.20;99.90;;;;;;5135481;27;20019;-61
2020/12/14 15:51:50;;;;;;;15.60;3.65;;;19.20;99.90;;;;;;5134974;27;20534;-61
2020/12/14 15:54:18;;;;;;;15.63;3.17;;;19.20;99.90;;;;;;5135453;27;20030;-61
2020/12/14 15:56:50;;;;;;;16.30;3.28;;;19.30;99.90;;;;;;5135638;27;20031;-61
2020/12/14 15:59:18;;;;;;;14.02;3.20;;;19.30;99.90;;;;;;5135612;27;20111;-61
2020/12/14 16:01:52;;;;;;;11.35;3.22;;;19.30;99.90;;;;;;5135530;27;20076;-61
2020/12/14 16:04:21;;;;;;;13.93;3.03;;;19.20;99.90;;;;;;5135203;27;20084;-61
2020/12/14 16:06:49;;;;;;;15.23;3.25;;;19.30;99.90;;;;;;5135113;27;20135;-62
2020/12/14 16:09:17;;;;;;;14.55;3.55;;;19.30;99.90;;;;;;5135141;27;20022;-61
2020/12/14 16:11:46;;;;;;;12.90;2.50;;;19.20;99.90;;;;;;5116882;27;20098;-62
2020/12/14 16:14:14;;;;;;;16.05;3.63;;;19.30;99.90;;;;;;5116665;27;20051;-62
2020/12/14 16:16:42;;;;;;;16.83;3.22;;;19.20;99.90;;;;;;5135326;27;20479;-61
2020/12/14 16:19:10;;;;;;;14.45;3.22;;;19.20;99.90;;;;;;5135011;27;20054;-61
2020/12/14 16:21:39;;;;;;;12.38;3.00;;;19.20;99.90;;;;;;5135178;27;20067;-61
2020/12/14 16:24:07;;;;;;;16.70;3.78;;;19.20;99.90;;;;;;5134988;27;20040;-62
2020/12/14 16:26:35;;;;;;;13.32;4.55;;;19.20;99.90;;;;;;5135037;27;20160;-62
2020/12/14 16:29:03;;;;;;;12.02;2.63;;;19.20;99.90;;;;;;5134713;27;20023;-62
2020/12/14 16:31:31;;;;;;;12.32;3.13;;;19.20;99.90;;;;;;5135047;27;20107;-62
2020/12/14 16:33:59;;;;;;;14.82;3.10;;;19.20;99.90;;;;;;5116802;28;20094;-62
2020/12/14 16:36:28;;;;;;;15.07;2.95;;;19.20;99.90;;;;;;5134795;27;20015;-61
2020/12/14 16:38:57;;;;;;;13.73;2.78;;;19.20;99.90;;;;;;5116299;27;20576;-62
2020/12/14 16:41:25;;;;;;;15.50;3.08;;;19.20;99.90;;;;;;5116823;27;20034;-61
2020/12/14 16:43:53;;;;;;;10.38;2.83;;;19.20;99.90;;;;;;5134654;27;20019;-61
2020/12/14 16:46:21;;;;;;;15.98;3.38;;;19.20;99.90;;;;;;5134589;27;20072;-60
2020/12/14 16:48:51;;;;;;;14.00;3.03;;;19.30;99.90;;;;;;5134721;27;20019;-61
2020/12/14 16:51:19;;;;;;;21.45;3.72;;;19.30;99.90;;;;;;5134772;27;20479;-61
2020/12/14 16:53:48;;;;;;;20.77;3.65;;;19.20;99.90;;;;;;5134408;27;20020;-61
2020/12/14 16:56:16;;;;;;;18.85;3.45;;;19.30;99.90;;;;;;5134385;27;20057;-61
2020/12/14 16:58:46;;;;;;;15.43;3.20;;;19.20;99.90;;;;;;5134600;27;20450;-61
2020/12/14 17:01:15;;;;;;;18.00;3.15;;;19.20;99.90;;;;;;5134640;27;20023;-61
2020/12/14 17:03:43;;;;;;;14.80;3.75;;;19.20;99.90;;;;;;5134356;27;20448;-62
2020/12/14 17:06:15;;;;;;;14.85;3.05;;;19.10;99.90;;;;;;5134344;27;20023;-61
2020/12/14 17:08:44;;;;;;;18.55;3.20;;;19.10;99.90;;;;;;5082571;28;20047;-61
2020/12/14 17:11:12;;;;;;;10.27;2.33;;;19.10;99.90;;;;;;5134283;28;20102;-60
2020/12/14 17:13:42;;;;;;;12.95;2.47;;;19.10;99.90;;;;;;5082384;28;20035;-61
2020/12/14 17:16:10;;;;;;;11.55;2.45;;;19.00;99.90;;;;;;5134496;28;20115;-61
2020/12/14 17:18:38;;;;;;;13.95;2.40;;;19.00;99.90;;;;;;5134589;28;20118;-61
2020/12/14 17:21:06;;;;;;;14.02;2.92;;;19.00;99.90;;;;;;5134427;28;20023;-61
2020/12/14 17:23:34;;;;;;;11.38;2.65;;;19.00;99.90;;;;;;5098278;28;20028;-61
2020/12/14 17:26:04;;;;;;;12.85;3.08;;;19.00;99.90;;;;;;5134151;28;20463;-61
2020/12/14 17:28:32;;;;;;;12.20;2.17;;;19.00;99.90;;;;;;5115624;28;20046;-61
2020/12/14 17:31:00;;;;;;;11.30;2.20;;;19.00;99.90;;;;;;5064688;28;20066;-62
2020/12/14 17:33:31;;;;;;;11.20;2.08;;;19.00;99.90;;;;;;5134101;28;20021;-61
2020/12/14 17:35:58;;;;;;;;;;;19.00;99.90;;;;;;5134763;28;20019;-62
2020/12/14 17:38:26;;;;;;;9.98;2.20;;;19.00;99.90;;;;;;5134289;28;19939;-61
2020/12/14 17:40:54;;;;;;;8.75;2.13;;;19.10;99.90;;;;;;5115571;28;20535;-61
2020/12/14 17:43:24;;;;;;;9.55;2.05;;;19.10;99.90;;;;;;5134182;28;20016;-61
2020/12/14 17:45:53;;;;;;;8.57;1.88;;;19.10;99.90;;;;;;5133911;28;20034;-64
2020/12/14 17:48:21;;;;;;;10.45;2.15;;;19.10;99.90;;;;;;5134048;28;20031;-61
2020/12/14 17:50:49;;;;;;;9.30;2.13;;;19.10;99.90;;;;;;5134177;28;20112;-61
2020/12/14 17:53:17;;;;;;;6.70;1.50;;;19.10;99.90;;;;;;5134108;28;20051;-62
2020/12/14 17:55:45;;;;;;;8.88;1.65;;;19.10;99.90;;;;;;5133817;28;20054;-61
2020/12/14 17:58:13;;;;;;;8.02;1.77;;;19.10;99.90;;;;;;5134059;28;20019;-61
2020/12/14 18:00:43;;;;;;;8.02;1.80;;;19.10;99.90;;;;;;5133825;28;20023;-62